sensor_id;sensor_type;location;lat;lon;timestamp;pressure;altitude;pressure_sealevel;temperature;humidity
7109;BME280;29079;41.930;25.558;2022-07-23T00:01:43;99681.66;;;23.46;45.99
7109;BME280;29079;41.930;25.558;2022-07-23T00:04:13;99676.06;;;23.41;46.17
7109;BME280;29079;41.930;25.558;2022-07-23T00:06:45;99679.63;;;23.35;46.50
7109;BME280;29079;41.930;25.558;2022-07-23T00:09:14;99678.56;;;23.36;46.81
7109;BME280;29079;41.930;25.558;2022-07-23T00:11:45;99680.50;;;23.29;47.28
7109;BME280;29079;41.930;25.558;2022-07-23T00:14:15;99676.94;;;23.28;47.31
7109;BME280;29079;41.930;25.558;2022-07-23T00:16:46;99682.66;;;23.14;47.79
7109;BME280;29079;41.930;25.558;2022-07-23T00:19:16;99679.09;;;23.06;47.84
7109;BME280;29079;41.930;25.558;2022-07-23T00:21:47;99675.91;;;23.23;47.89
7109;BME280;29079;41.930;25.558;2022-07-23T00:24:17;99678.84;;;23.28;47.70
7109;BME280;29079;41.930;25.558;2022-07-23T00:26:47;99674.63;;;23.32;47.79
7109;BME280;29079;41.930;25.558;2022-07-23T00:29:17;99677.78;;;23.29;47.59
7109;BME280;29079;41.930;25.558;2022-07-23T00:31:47;99677.38;;;23.25;47.57
7109;BME280;29079;41.930;25.558;2022-07-23T00:34:18;99676.28;;;23.33;47.66
7109;BME280;29079;41.930;25.558;2022-07-23T00:36:49;99676.88;;;23.42;47.02
7109;BME280;29079;41.930;25.558;2022-07-23T00:39:22;99663.91;;;23.44;46.76
7109;BME280;29079;41.930;25.558;2022-07-23T00:41:52;99667.16;;;23.07;47.28
7109;BME280;29079;41.930;25.558;2022-07-23T00:44:25;99670.97;;;22.93;47.78
7109;BME280;29079;41.930;25.558;2022-07-23T00:46:57;99666.59;;;22.92;47.66
7109;BME280;29079;41.930;25.558;2022-07-23T00:49:28;99663.28;;;22.76;47.98
7109;BME280;29079;41.930;25.558;2022-07-23T00:52:01;99669.13;;;22.73;48.46
7109;BME280;29079;41.930;25.558;2022-07-23T00:54:32;99665.59;;;22.59;48.45
7109;BME280;29079;41.930;25.558;2022-07-23T00:57:03;99663.72;;;22.60;48.66
7109;BME280;29079;41.930;25.558;2022-07-23T00:59:33;99667.91;;;22.56;48.65
7109;BME280;29079;41.930;25.558;2022-07-23T01:02:03;99669.38;;;22.58;48.28
7109;BME280;29079;41.930;25.558;2022-07-23T01:04:33;99671.84;;;22.73;47.99
7109;BME280;29079;41.930;25.558;2022-07-23T01:07:05;99667.28;;;22.67;48.36
7109;BME280;29079;41.930;25.558;2022-07-23T01:09:35;99665.38;;;22.61;48.51
7109;BME280;29079;41.930;25.558;2022-07-23T01:12:07;99669.16;;;22.53;48.79
7109;BME280;29079;41.930;25.558;2022-07-23T01:14:38;99669.59;;;22.50;48.83
7109;BME280;29079;41.930;25.558;2022-07-23T01:17:08;99672.06;;;22.65;48.99
7109;BME280;29079;41.930;25.558;2022-07-23T01:19:38;99674.63;;;22.47;49.08
7109;BME280;29079;41.930;25.558;2022-07-23T01:22:10;99675.25;;;22.35;49.13
7109;BME280;29079;41.930;25.558;2022-07-23T01:24:41;99680.03;;;22.20;49.73
7109;BME280;29079;41.930;25.558;2022-07-23T01:27:11;99682.31;;;22.09;50.21
7109;BME280;29079;41.930;25.558;2022-07-23T01:29:42;99685.47;;;22.06;49.99
7109;BME280;29079;41.930;25.558;2022-07-23T01:32:12;99683.78;;;21.99;50.28
7109;BME280;29079;41.930;25.558;2022-07-23T01:34:42;99682.31;;;21.89;50.67
7109;BME280;29079;41.930;25.558;2022-07-23T01:37:12;99682.09;;;21.84;50.84
7109;BME280;29079;41.930;25.558;2022-07-23T01:39:43;99681.47;;;21.76;50.86
7109;BME280;29079;41.930;25.558;2022-07-23T01:42:13;99683.91;;;21.57;51.13
7109;BME280;29079;41.930;25.558;2022-07-23T01:44:45;99683.22;;;21.48;51.47
7109;BME280;29079;41.930;25.558;2022-07-23T01:47:15;99680.53;;;21.55;51.07
7109;BME280;29079;41.930;25.558;2022-07-23T01:49:45;99680.75;;;21.53;51.12
7109;BME280;29079;41.930;25.558;2022-07-23T01:52:15;99685.63;;;21.71;50.55
7109;BME280;29079;41.930;25.558;2022-07-23T01:54:47;99683.91;;;21.57;50.96
7109;BME280;29079;41.930;25.558;2022-07-23T01:57:17;99690.50;;;21.48;51.07
7109;BME280;29079;41.930;25.558;2022-07-23T01:59:47;99684.75;;;21.64;50.85
7109;BME280;29079;41.930;25.558;2022-07-23T02:02:17;99683.09;;;21.77;50.27
7109;BME280;29079;41.930;25.558;2022-07-23T02:04:47;99689.38;;;21.70;50.60
7109;BME280;29079;41.930;25.558;2022-07-23T02:07:17;99680.97;;;21.52;50.98
7109;BME280;29079;41.930;25.558;2022-07-23T02:09:48;99679.94;;;21.66;50.66
7109;BME280;29079;41.930;25.558;2022-07-23T02:12:18;99682.47;;;21.68;50.70
7109;BME280;29079;41.930;25.558;2022-07-23T02:14:49;99686.75;;;21.49;51.15
7109;BME280;29079;41.930;25.558;2022-07-23T02:17:20;99684.31;;;21.54;50.88
7109;BME280;29079;41.930;25.558;2022-07-23T02:19:50;99666.59;;;21.58;50.63
7109;BME280;29079;41.930;25.558;2022-07-23T02:22:20;99685.16;;;21.54;51.00
7109;BME280;29079;41.930;25.558;2022-07-23T02:24:51;99680.06;;;21.45;50.83
7109;BME280;29079;41.930;25.558;2022-07-23T02:27:21;99681.25;;;21.22;51.47
7109;BME280;29079;41.930;25.558;2022-07-23T02:29:51;99685.91;;;21.42;50.95
7109;BME280;29079;41.930;25.558;2022-07-23T02:32:21;99672.53;;;21.40;50.66
7109;BME280;29079;41.930;25.558;2022-07-23T02:34:51;99676.72;;;21.43;51.04
7109;BME280;29079;41.930;25.558;2022-07-23T02:37:21;99686.09;;;21.33;51.01
7109;BME280;29079;41.930;25.558;2022-07-23T02:39:52;99680.59;;;21.20;51.30
7109;BME280;29079;41.930;25.558;2022-07-23T02:42:22;99688.28;;;21.10;51.94
7109;BME280;29079;41.930;25.558;2022-07-23T02:44:52;99688.00;;;20.98;51.67
7109;BME280;29079;41.930;25.558;2022-07-23T02:47:22;99690.41;;;21.21;50.97
7109;BME280;29079;41.930;25.558;2022-07-23T02:49:52;99688.38;;;21.30;50.75
7109;BME280;29079;41.930;25.558;2022-07-23T02:52:22;99687.66;;;21.14;51.23
7109;BME280;29079;41.930;25.558;2022-07-23T02:54:54;99700.34;;;21.07;51.40
7109;BME280;29079;41.930;25.558;2022-07-23T02:57:23;99699.53;;;21.07;51.39
7109;BME280;29079;41.930;25.558;2022-07-23T02:59:54;99693.75;;;21.16;51.11
7109;BME280;29079;41.930;25.558;2022-07-23T03:02:24;99703.59;;;21.24;50.70
7109;BME280;29079;41.930;25.558;2022-07-23T03:04:54;99703.19;;;21.27;50.69
7109;BME280;29079;41.930;25.558;2022-07-23T03:07:24;99706.34;;;21.31;50.50
7109;BME280;29079;41.930;25.558;2022-07-23T03:09:56;99720.06;;;21.22;50.67
7109;BME280;29079;41.930;25.558;2022-07-23T03:12:26;99713.16;;;21.20;50.60
7109;BME280;29079;41.930;25.558;2022-07-23T03:14:57;99713.41;;;21.32;50.30
7109;BME280;29079;41.930;25.558;2022-07-23T03:17:27;99712.59;;;21.31;50.26
7109;BME280;29079;41.930;25.558;2022-07-23T03:19:57;99704.09;;;20.99;50.93
7109;BME280;29079;41.930;25.558;2022-07-23T03:22:27;99692.50;;;20.84;50.85
7109;BME280;29079;41.930;25.558;2022-07-23T03:24:59;99709.84;;;20.83;51.37
7109;BME280;29079;41.930;25.558;2022-07-23T03:27:30;99712.91;;;20.73;51.81
7109;BME280;29079;41.930;25.558;2022-07-23T03:30:00;99711.34;;;20.64;51.94
7109;BME280;29079;41.930;25.558;2022-07-23T03:32:30;99710.25;;;20.80;51.69
7109;BME280;29079;41.930;25.558;2022-07-23T03:35:01;99711.81;;;20.96;51.24
7109;BME280;29079;41.930;25.558;2022-07-23T03:37:34;99708.63;;;20.92;51.28
7109;BME280;29079;41.930;25.558;2022-07-23T03:40:07;99713.53;;;20.75;51.69
7109;BME280;29079;41.930;25.558;2022-07-23T03:42:38;99705.38;;;20.68;52.10
7109;BME280;29079;41.930;25.558;2022-07-23T03:45:10;99705.59;;;20.74;51.80
7109;BME280;29079;41.930;25.558;2022-07-23T03:47:40;99713.03;;;20.93;51.42
7109;BME280;29079;41.930;25.558;2022-07-23T03:50:12;99704.25;;;20.63;52.21
7109;BME280;29079;41.930;25.558;2022-07-23T03:55:13;99715.81;;;20.50;52.64
7109;BME280;29079;41.930;25.558;2022-07-23T03:57:43;99712.38;;;20.63;52.62
7109;BME280;29079;41.930;25.558;2022-07-23T04:00:13;99711.06;;;20.80;51.89
7109;BME280;29079;41.930;25.558;2022-07-23T04:02:44;99709.78;;;20.76;51.94
7109;BME280;29079;41.930;25.558;2022-07-23T04:05:14;99715.06;;;20.84;51.51
7109;BME280;29079;41.930;25.558;2022-07-23T04:07:44;99718.19;;;20.88;51.55
7109;BME280;29079;41.930;25.558;2022-07-23T04:10:15;99722.78;;;20.87;51.56
7109;BME280;29079;41.930;25.558;2022-07-23T04:12:45;99721.97;;;20.87;51.79
7109;BME280;29079;41.930;25.558;2022-07-23T04:15:16;99723.16;;;20.78;52.11
7109;BME280;29079;41.930;25.558;2022-07-23T04:17:46;99730.78;;;20.67;52.53
7109;BME280;29079;41.930;25.558;2022-07-23T04:20:16;99726.41;;;20.66;52.78
7109;BME280;29079;41.930;25.558;2022-07-23T04:22:46;99730.13;;;20.94;52.29
7109;BME280;29079;41.930;25.558;2022-07-23T04:25:18;99729.31;;;20.93;52.32
7109;BME280;29079;41.930;25.558;2022-07-23T04:27:48;99727.41;;;20.94;52.33
7109;BME280;29079;41.930;25.558;2022-07-23T04:30:18;99729.22;;;21.15;52.25
7109;BME280;29079;41.930;25.558;2022-07-23T04:32:48;99730.19;;;21.07;52.69
7109;BME280;29079;41.930;25.558;2022-07-23T04:35:18;99730.06;;;21.15;52.67
7109;BME280;29079;41.930;25.558;2022-07-23T04:37:48;99723.13;;;21.13;52.65
7109;BME280;29079;41.930;25.558;2022-07-23T04:40:20;99724.63;;;21.15;52.62
7109;BME280;29079;41.930;25.558;2022-07-23T04:42:50;99731.94;;;21.15;52.75
7109;BME280;29079;41.930;25.558;2022-07-23T04:45:20;99730.34;;;21.34;52.42
7109;BME280;29079;41.930;25.558;2022-07-23T04:47:52;99733.53;;;21.44;52.35
7109;BME280;29079;41.930;25.558;2022-07-23T04:50:22;99729.63;;;21.53;51.76
7109;BME280;29079;41.930;25.558;2022-07-23T04:52:53;99729.88;;;21.65;51.38
7109;BME280;29079;41.930;25.558;2022-07-23T04:55:24;99727.19;;;21.72;51.43
7109;BME280;29079;41.930;25.558;2022-07-23T04:57:54;99736.63;;;21.89;51.05
7109;BME280;29079;41.930;25.558;2022-07-23T05:00:24;99732.25;;;21.95;51.00
7109;BME280;29079;41.930;25.558;2022-07-23T05:02:54;99735.63;;;22.04;50.88
7109;BME280;29079;41.930;25.558;2022-07-23T05:05:24;99742.34;;;22.15;50.64
7109;BME280;29079;41.930;25.558;2022-07-23T05:07:54;99737.75;;;22.29;50.58
7109;BME280;29079;41.930;25.558;2022-07-23T05:10:26;99731.50;;;22.41;50.53
7109;BME280;29079;41.930;25.558;2022-07-23T05:12:56;99738.81;;;22.48;50.70
7109;BME280;29079;41.930;25.558;2022-07-23T05:15:27;99733.81;;;22.65;50.31
7109;BME280;29079;41.930;25.558;2022-07-23T05:17:57;99741.53;;;22.88;49.78
7109;BME280;29079;41.930;25.558;2022-07-23T05:20:27;99731.25;;;22.97;49.85
7109;BME280;29079;41.930;25.558;2022-07-23T05:22:57;99731.41;;;23.08;49.55
7109;BME280;29079;41.930;25.558;2022-07-23T05:25:29;99740.00;;;23.19;49.42
7109;BME280;29079;41.930;25.558;2022-07-23T05:27:58;99732.88;;;23.31;49.18
7109;BME280;29079;41.930;25.558;2022-07-23T05:30:28;99741.41;;;23.41;48.65
7109;BME280;29079;41.930;25.558;2022-07-23T05:32:58;99738.69;;;23.41;47.88
7109;BME280;29079;41.930;25.558;2022-07-23T05:35:28;99743.25;;;23.54;47.49
7109;BME280;29079;41.930;25.558;2022-07-23T05:37:58;99723.16;;;23.42;47.91
7109;BME280;29079;41.930;25.558;2022-07-23T05:40:30;99748.84;;;23.66;47.56
7109;BME280;29079;41.930;25.558;2022-07-23T05:43:01;99749.44;;;23.68;47.70
7109;BME280;29079;41.930;25.558;2022-07-23T05:45:31;99738.47;;;23.81;47.47
7109;BME280;29079;41.930;25.558;2022-07-23T05:48:01;99743.47;;;23.98;46.69
7109;BME280;29079;41.930;25.558;2022-07-23T05:50:31;99744.72;;;24.02;46.19
7109;BME280;29079;41.930;25.558;2022-07-23T05:53:01;99733.06;;;24.13;46.47
7109;BME280;29079;41.930;25.558;2022-07-23T05:55:33;99750.41;;;24.26;46.09
7109;BME280;29079;41.930;25.558;2022-07-23T05:58:03;99737.38;;;24.28;46.22
7109;BME280;29079;41.930;25.558;2022-07-23T06:00:33;99732.25;;;24.38;46.49
7109;BME280;29079;41.930;25.558;2022-07-23T06:03:03;99734.69;;;24.53;46.01
7109;BME280;29079;41.930;25.558;2022-07-23T06:05:33;99741.94;;;24.66;45.78
7109;BME280;29079;41.930;25.558;2022-07-23T06:08:04;99739.75;;;24.75;45.50
7109;BME280;29079;41.930;25.558;2022-07-23T06:10:35;99739.69;;;24.81;44.70
7109;BME280;29079;41.930;25.558;2022-07-23T06:13:05;99737.28;;;24.92;44.76
7109;BME280;29079;41.930;25.558;2022-07-23T06:15:35;99736.59;;;24.96;44.96
7109;BME280;29079;41.930;25.558;2022-07-23T06:18:05;99745.53;;;25.03;44.75
7109;BME280;29079;41.930;25.558;2022-07-23T06:20:35;99736.00;;;25.13;44.71
7109;BME280;29079;41.930;25.558;2022-07-23T06:23:05;99730.34;;;25.33;43.88
7109;BME280;29079;41.930;25.558;2022-07-23T06:25:37;99734.59;;;25.47;43.08
7109;BME280;29079;41.930;25.558;2022-07-23T06:28:06;99727.03;;;25.61;42.45
7109;BME280;29079;41.930;25.558;2022-07-23T06:30:37;99721.88;;;25.71;42.10
7109;BME280;29079;41.930;25.558;2022-07-23T06:33:07;99729.88;;;25.85;41.73
7109;BME280;29079;41.930;25.558;2022-07-23T06:35:37;99724.03;;;26.00;41.71
7109;BME280;29079;41.930;25.558;2022-07-23T06:38:07;99719.41;;;26.12;40.66
7109;BME280;29079;41.930;25.558;2022-07-23T06:40:38;99705.38;;;26.09;40.41
7109;BME280;29079;41.930;25.558;2022-07-23T06:43:08;99713.72;;;26.26;39.87
7109;BME280;29079;41.930;25.558;2022-07-23T06:45:38;99713.38;;;26.34;40.50
7109;BME280;29079;41.930;25.558;2022-07-23T06:48:08;99708.06;;;26.39;40.54
7109;BME280;29079;41.930;25.558;2022-07-23T06:50:38;99710.91;;;26.56;40.20
7109;BME280;29079;41.930;25.558;2022-07-23T06:53:08;99713.06;;;26.66;39.70
7109;BME280;29079;41.930;25.558;2022-07-23T06:55:40;99717.59;;;26.72;39.50
7109;BME280;29079;41.930;25.558;2022-07-23T06:58:10;99722.50;;;26.82;39.35
7109;BME280;29079;41.930;25.558;2022-07-23T07:00:40;99721.28;;;26.89;38.95
7109;BME280;29079;41.930;25.558;2022-07-23T07:03:10;99722.59;;;26.99;38.91
7109;BME280;29079;41.930;25.558;2022-07-23T07:05:40;99717.94;;;26.99;39.09
7109;BME280;29079;41.930;25.558;2022-07-23T07:08:10;99726.16;;;27.11;38.72
7109;BME280;29079;41.930;25.558;2022-07-23T07:10:41;99722.59;;;27.10;37.86
7109;BME280;29079;41.930;25.558;2022-07-23T07:13:12;99721.97;;;27.20;38.15
7109;BME280;29079;41.930;25.558;2022-07-23T07:15:43;99718.84;;;27.28;37.97
7109;BME280;29079;41.930;25.558;2022-07-23T07:18:13;99718.50;;;27.37;37.29
7109;BME280;29079;41.930;25.558;2022-07-23T07:20:44;99722.28;;;27.48;37.32
7109;BME280;29079;41.930;25.558;2022-07-23T07:23:14;99721.66;;;27.57;37.74
7109;BME280;29079;41.930;25.558;2022-07-23T07:25:46;99723.91;;;27.60;37.16
7109;BME280;29079;41.930;25.558;2022-07-23T07:28:16;99721.59;;;27.69;37.63
7109;BME280;29079;41.930;25.558;2022-07-23T07:30:46;99715.50;;;27.79;36.94
7109;BME280;29079;41.930;25.558;2022-07-23T07:33:16;99710.13;;;27.84;37.23
7109;BME280;29079;41.930;25.558;2022-07-23T07:35:46;99710.19;;;27.89;36.33
7109;BME280;29079;41.930;25.558;2022-07-23T07:38:16;99696.47;;;27.89;36.97
7109;BME280;29079;41.930;25.558;2022-07-23T07:40:48;99701.81;;;27.96;36.96
7109;BME280;29079;41.930;25.558;2022-07-23T07:43:18;99698.38;;;28.01;36.63
7109;BME280;29079;41.930;25.558;2022-07-23T07:45:48;99698.03;;;28.14;35.36
7109;BME280;29079;41.930;25.558;2022-07-23T07:48:19;99697.53;;;28.17;35.41
7109;BME280;29079;41.930;25.558;2022-07-23T07:50:49;99693.16;;;28.16;36.39
7109;BME280;29079;41.930;25.558;2022-07-23T07:53:20;99691.31;;;28.22;36.86
7109;BME280;29079;41.930;25.558;2022-07-23T07:55:51;99691.72;;;28.30;36.29
7109;BME280;29079;41.930;25.558;2022-07-23T07:58:21;99680.03;;;28.35;35.90
7109;BME280;29079;41.930;25.558;2022-07-23T08:00:51;99683.75;;;28.46;36.55
7109;BME280;29079;41.930;25.558;2022-07-23T08:03:22;99690.13;;;28.52;35.82
7109;BME280;29079;41.930;25.558;2022-07-23T08:05:52;99682.97;;;28.51;36.31
7109;BME280;29079;41.930;25.558;2022-07-23T08:08:22;99676.16;;;28.53;36.15
7109;BME280;29079;41.930;25.558;2022-07-23T08:10:55;99675.09;;;28.71;35.84
7109;BME280;29079;41.930;25.558;2022-07-23T08:13:25;99668.00;;;28.75;36.12
7109;BME280;29079;41.930;25.558;2022-07-23T08:15:56;99679.31;;;28.79;35.90
7109;BME280;29079;41.930;25.558;2022-07-23T08:18:26;99674.78;;;28.90;35.90
7109;BME280;29079;41.930;25.558;2022-07-23T08:20:56;99664.66;;;28.90;35.95
7109;BME280;29079;41.930;25.558;2022-07-23T08:23:26;99656.06;;;28.87;36.50
7109;BME280;29079;41.930;25.558;2022-07-23T08:25:59;99663.81;;;28.90;36.59
7109;BME280;29079;41.930;25.558;2022-07-23T08:28:29;99661.25;;;29.22;34.71
7109;BME280;29079;41.930;25.558;2022-07-23T08:31:01;99664.78;;;29.45;34.39
7109;BME280;29079;41.930;25.558;2022-07-23T08:33:34;99665.75;;;29.56;33.77
7109;BME280;29079;41.930;25.558;2022-07-23T08:36:04;99650.75;;;29.41;33.94
7109;BME280;29079;41.930;25.558;2022-07-23T08:38:34;99660.94;;;29.46;34.82
7109;BME280;29079;41.930;25.558;2022-07-23T08:41:07;99660.50;;;29.54;34.42
7109;BME280;29079;41.930;25.558;2022-07-23T08:43:37;99666.66;;;29.66;34.14
7109;BME280;29079;41.930;25.558;2022-07-23T08:46:09;99639.88;;;29.57;33.80
7109;BME280;29079;41.930;25.558;2022-07-23T08:48:39;99664.59;;;29.79;34.45
7109;BME280;29079;41.930;25.558;2022-07-23T08:51:10;99659.31;;;29.99;33.58
7109;BME280;29079;41.930;25.558;2022-07-23T08:53:40;99659.25;;;29.94;33.98
7109;BME280;29079;41.930;25.558;2022-07-23T08:56:11;99653.75;;;29.94;33.63
7109;BME280;29079;41.930;25.558;2022-07-23T08:58:42;99653.47;;;29.91;34.30
7109;BME280;29079;41.930;25.558;2022-07-23T09:01:12;99652.19;;;30.03;34.27
7109;BME280;29079;41.930;25.558;2022-07-23T09:03:42;99646.44;;;30.05;33.02
7109;BME280;29079;41.930;25.558;2022-07-23T09:06:13;99639.53;;;30.02;33.49
7109;BME280;29079;41.930;25.558;2022-07-23T09:08:44;99644.22;;;30.07;33.94
7109;BME280;29079;41.930;25.558;2022-07-23T09:11:17;99644.84;;;30.14;33.82
7109;BME280;29079;41.930;25.558;2022-07-23T09:13:49;99644.03;;;30.14;33.90
7109;BME280;29079;41.930;25.558;2022-07-23T09:16:25;99632.78;;;30.20;33.28
7109;BME280;29079;41.930;25.558;2022-07-23T09:18:58;99624.50;;;30.20;33.45
7109;BME280;29079;41.930;25.558;2022-07-23T09:21:30;99617.19;;;30.36;32.67
7109;BME280;29079;41.930;25.558;2022-07-23T09:24:01;99613.56;;;30.26;33.11
7109;BME280;29079;41.930;25.558;2022-07-23T09:26:37;99631.91;;;30.47;31.71
7109;BME280;29079;41.930;25.558;2022-07-23T09:29:10;99613.44;;;30.43;32.39
7109;BME280;29079;41.930;25.558;2022-07-23T09:31:46;99608.66;;;30.33;32.49
7109;BME280;29079;41.930;25.558;2022-07-23T09:34:19;99609.94;;;30.63;31.14
7109;BME280;29079;41.930;25.558;2022-07-23T09:36:53;99603.06;;;30.60;31.34
7109;BME280;29079;41.930;25.558;2022-07-23T09:39:27;99613.22;;;30.60;31.56
7109;BME280;29079;41.930;25.558;2022-07-23T09:42:13;99610.81;;;30.68;31.37
7109;BME280;29079;41.930;25.558;2022-07-23T09:44:44;99605.63;;;30.77;31.00
7109;BME280;29079;41.930;25.558;2022-07-23T09:47:15;99611.16;;;30.82;30.55
7109;BME280;29079;41.930;25.558;2022-07-23T09:49:58;99609.66;;;30.59;31.53
7109;BME280;29079;41.930;25.558;2022-07-23T09:52:30;99608.53;;;30.55;31.18
7109;BME280;29079;41.930;25.558;2022-07-23T09:55:05;99604.75;;;30.71;29.42
7109;BME280;29079;41.930;25.558;2022-07-23T09:57:37;99598.97;;;30.73;30.33
7109;BME280;29079;41.930;25.558;2022-07-23T10:00:10;99598.19;;;30.78;30.09
7109;BME280;29079;41.930;25.558;2022-07-23T10:02:41;99601.91;;;30.51;31.94
7109;BME280;29079;41.930;25.558;2022-07-23T10:05:12;99589.13;;;30.34;32.47
7109;BME280;29079;41.930;25.558;2022-07-23T10:07:43;99590.16;;;30.66;28.52
7109;BME280;29079;41.930;25.558;2022-07-23T10:10:21;99595.72;;;30.76;28.68
7109;BME280;29079;41.930;25.558;2022-07-23T10:12:54;99575.53;;;30.60;29.34
7109;BME280;29079;41.930;25.558;2022-07-23T10:15:50;99586.50;;;31.08;29.71
7109;BME280;29079;41.930;25.558;2022-07-23T10:18:20;99591.06;;;30.87;30.98
7109;BME280;29079;41.930;25.558;2022-07-23T10:20:50;99578.91;;;30.83;30.45
7109;BME280;29079;41.930;25.558;2022-07-23T10:23:24;99582.22;;;30.80;29.79
7109;BME280;29079;41.930;25.558;2022-07-23T10:26:05;99581.72;;;30.93;29.94
7109;BME280;29079;41.930;25.558;2022-07-23T10:29:08;99576.91;;;31.31;28.42
7109;BME280;29079;41.930;25.558;2022-07-23T10:31:50;99574.09;;;31.21;29.51
7109;BME280;29079;41.930;25.558;2022-07-23T10:34:41;99573.84;;;31.28;28.73
7109;BME280;29079;41.930;25.558;2022-07-23T10:37:20;99564.22;;;31.46;28.08
7109;BME280;29079;41.930;25.558;2022-07-23T10:40:11;99558.97;;;31.44;28.16
7109;BME280;29079;41.930;25.558;2022-07-23T10:42:41;99547.16;;;31.49;28.35
7109;BME280;29079;41.930;25.558;2022-07-23T10:45:27;99540.31;;;31.72;27.35
7109;BME280;29079;41.930;25.558;2022-07-23T10:48:16;99540.03;;;31.63;27.69
7109;BME280;29079;41.930;25.558;2022-07-23T10:51:11;99539.44;;;31.51;28.09
7109;BME280;29079;41.930;25.558;2022-07-23T10:53:56;99507.69;;;31.17;28.71
7109;BME280;29079;41.930;25.558;2022-07-23T10:57:04;99524.78;;;31.24;29.88
7109;BME280;29079;41.930;25.558;2022-07-23T11:00:12;99518.72;;;31.28;29.33
7109;BME280;29079;41.930;25.558;2022-07-23T11:02:46;99518.47;;;31.39;27.93
7109;BME280;29079;41.930;25.558;2022-07-23T11:05:19;99521.81;;;31.57;28.53
7109;BME280;29079;41.930;25.558;2022-07-23T11:11:08;99508.53;;;31.38;28.72
7109;BME280;29079;41.930;25.558;2022-07-23T11:13:48;99500.59;;;31.57;27.38
7109;BME280;29079;41.930;25.558;2022-07-23T11:16:21;99501.94;;;31.70;27.14
7109;BME280;29079;41.930;25.558;2022-07-23T11:19:11;99504.13;;;31.37;28.86
7109;BME280;29079;41.930;25.558;2022-07-23T11:21:51;99494.47;;;31.86;26.76
7109;BME280;29079;41.930;25.558;2022-07-23T11:24:26;99496.16;;;31.72;27.62
7109;BME280;29079;41.930;25.558;2022-07-23T11:27:01;99494.78;;;31.64;28.67
7109;BME280;29079;41.930;25.558;2022-07-23T11:29:47;99498.09;;;31.66;28.83
7109;BME280;29079;41.930;25.558;2022-07-23T11:32:28;99500.25;;;31.95;26.89
7109;BME280;29079;41.930;25.558;2022-07-23T11:35:01;99494.19;;;31.77;27.01
7109;BME280;29079;41.930;25.558;2022-07-23T11:37:36;99485.94;;;31.57;28.36
7109;BME280;29079;41.930;25.558;2022-07-23T11:40:09;99489.78;;;31.82;28.19
7109;BME280;29079;41.930;25.558;2022-07-23T11:42:51;99482.63;;;31.70;27.74
7109;BME280;29079;41.930;25.558;2022-07-23T11:45:22;99485.94;;;31.83;27.82
7109;BME280;29079;41.930;25.558;2022-07-23T11:47:52;99483.75;;;31.69;27.97
7109;BME280;29079;41.930;25.558;2022-07-23T11:50:24;99480.44;;;31.52;29.42
7109;BME280;29079;41.930;25.558;2022-07-23T11:52:55;99490.34;;;31.27;29.75
7109;BME280;29079;41.930;25.558;2022-07-23T11:55:26;99482.06;;;31.48;29.69
7109;BME280;29079;41.930;25.558;2022-07-23T11:57:57;99485.94;;;31.47;28.98
7109;BME280;29079;41.930;25.558;2022-07-23T12:00:29;99479.63;;;31.56;28.92
7109;BME280;29079;41.930;25.558;2022-07-23T12:03:08;99480.16;;;31.69;28.26
7109;BME280;29079;41.930;25.558;2022-07-23T12:05:40;99479.03;;;31.85;28.47
7109;BME280;29079;41.930;25.558;2022-07-23T12:08:10;99473.81;;;31.68;29.45
7109;BME280;29079;41.930;25.558;2022-07-23T12:10:45;99477.69;;;31.72;28.13
7109;BME280;29079;41.930;25.558;2022-07-23T12:13:30;99475.41;;;32.00;27.71
7109;BME280;29079;41.930;25.558;2022-07-23T12:16:00;99462.78;;;31.73;29.28
7109;BME280;29079;41.930;25.558;2022-07-23T12:18:30;99464.16;;;31.66;30.66
7109;BME280;29079;41.930;25.558;2022-07-23T12:21:05;99466.94;;;31.61;29.12
7109;BME280;29079;41.930;25.558;2022-07-23T12:23:37;99457.22;;;31.89;28.22
7109;BME280;29079;41.930;25.558;2022-07-23T12:26:07;99453.88;;;32.02;27.86
7109;BME280;29079;41.930;25.558;2022-07-23T12:28:40;99450.56;;;32.05;28.51
7109;BME280;29079;41.930;25.558;2022-07-23T12:31:12;99452.88;;;31.57;31.76
7109;BME280;29079;41.930;25.558;2022-07-23T12:33:44;99449.53;;;31.50;29.88
7109;BME280;29079;41.930;25.558;2022-07-23T12:36:18;99439.88;;;31.78;28.93
7109;BME280;29079;41.930;25.558;2022-07-23T12:38:49;99439.88;;;31.78;28.93
7109;BME280;29079;41.930;25.558;2022-07-23T12:41:19;99440.47;;;31.65;29.92
7109;BME280;29079;41.930;25.558;2022-07-23T12:43:49;99441.25;;;31.70;28.89
7109;BME280;29079;41.930;25.558;2022-07-23T12:46:21;99447.56;;;31.86;29.13
7109;BME280;29079;41.930;25.558;2022-07-23T12:48:53;99432.63;;;32.03;27.74
7109;BME280;29079;41.930;25.558;2022-07-23T12:51:26;99427.16;;;31.92;29.04
7109;BME280;29079;41.930;25.558;2022-07-23T12:54:03;99436.84;;;31.80;28.97
7109;BME280;29079;41.930;25.558;2022-07-23T12:56:36;99431.56;;;31.88;28.17
7109;BME280;29079;41.930;25.558;2022-07-23T12:59:07;99421.66;;;31.82;29.05
7109;BME280;29079;41.930;25.558;2022-07-23T13:01:40;99417.78;;;31.83;29.04
7109;BME280;29079;41.930;25.558;2022-07-23T13:04:14;99417.75;;;31.93;27.45
7109;BME280;29079;41.930;25.558;2022-07-23T13:06:48;99416.97;;;31.88;28.66
7109;BME280;29079;41.930;25.558;2022-07-23T13:09:20;99422.50;;;31.72;29.93
7109;BME280;29079;41.930;25.558;2022-07-23T13:11:52;99414.41;;;32.12;28.24
7109;BME280;29079;41.930;25.558;2022-07-23T13:14:26;99418.56;;;32.04;27.58
7109;BME280;29079;41.930;25.558;2022-07-23T13:16:56;99406.22;;;31.81;28.57
7109;BME280;29079;41.930;25.558;2022-07-23T13:19:27;99405.38;;;31.91;28.19
7109;BME280;29079;41.930;25.558;2022-07-23T13:21:58;99400.44;;;31.72;28.74
7109;BME280;29079;41.930;25.558;2022-07-23T13:24:36;99400.34;;;32.03;26.97
7109;BME280;29079;41.930;25.558;2022-07-23T13:27:26;99398.16;;;32.05;27.82
7109;BME280;29079;41.930;25.558;2022-07-23T13:29:56;99404.16;;;32.23;27.88
7109;BME280;29079;41.930;25.558;2022-07-23T13:32:27;99393.72;;;32.15;28.46